createdAt,value
2023-05-22T00:00:02.489Z,10.34
2023-05-22T00:01:02.472Z,10.22
2023-05-22T00:02:02.499Z,10.46
2023-05-22T00:03:02.533Z,10.15
2023-05-22T00:04:02.421Z,10.01
2023-05-22T00:05:02.477Z,10.17
2023-05-22T00:06:02.367Z,9.44
2023-05-22T00:07:02.372Z,8.93
2023-05-22T00:08:02.338Z,9.82
2023-05-22T00:09:02.317Z,9.76
2023-05-22T00:10:02.297Z,11.20
2023-05-22T00:11:02.278Z,12.10
2023-05-22T00:12:02.299Z,10.67
2023-05-22T00:13:02.250Z,10.28
2023-05-22T00:14:02.266Z,10.90
2023-05-22T00:15:02.241Z,10.66
2023-05-22T00:16:02.214Z,10.68
2023-05-22T00:17:02.371Z,11.53
2023-05-22T00:18:02.250Z,11.32
2023-05-22T00:19:02.245Z,10.82
2023-05-22T00:20:02.201Z,11.10
2023-05-22T00:21:02.191Z,10.34
2023-05-22T00:22:02.194Z,11.57
2023-05-22T00:23:02.154Z,11.04
2023-05-22T00:24:02.146Z,10.85
2023-05-22T00:25:02.131Z,10.81
2023-05-22T00:26:02.121Z,10.16
2023-05-22T00:27:02.134Z,11.14
2023-05-22T00:28:02.183Z,10.90
2023-05-22T00:29:02.243Z,10.29
2023-05-22T00:30:02.391Z,10.47
2023-05-22T00:31:02.329Z,9.83
2023-05-22T00:32:02.361Z,10.72
2023-05-22T00:33:02.492Z,10.57
2023-05-22T00:34:02.534Z,10.76
2023-05-22T00:35:02.475Z,10.53
2023-05-22T00:36:02.518Z,11.20
2023-05-22T00:37:02.584Z,10.78
2023-05-22T00:38:02.609Z,10.26
2023-05-22T00:39:02.653Z,11.24
2023-05-22T00:40:02.727Z,11.44
2023-05-22T00:41:02.769Z,11.76
2023-05-22T00:42:02.810Z,12.40
2023-05-22T00:43:02.824Z,11.80
2023-05-22T00:44:02.856Z,10.92
2023-05-22T00:45:02.895Z,11.56
2023-05-22T00:46:02.975Z,10.93
2023-05-22T00:47:03.036Z,11.42
2023-05-22T00:48:03.097Z,10.78
2023-05-22T00:49:03.057Z,10.99
2023-05-22T00:50:03.117Z,10.83
2023-05-22T00:51:03.154Z,10.65
2023-05-22T00:52:03.270Z,12.08
2023-05-22T00:53:03.253Z,12.32
2023-05-22T00:54:03.279Z,12.87
2023-05-22T00:55:03.382Z,12.82
2023-05-22T00:56:03.379Z,14.12
2023-05-22T00:57:03.437Z,13.08
2023-05-22T00:58:03.494Z,14.45
2023-05-22T00:59:03.536Z,13.09
2023-05-22T01:00:03.587Z,13.48
2023-05-22T01:01:03.642Z,14.29
2023-05-22T01:02:03.872Z,13.85
2023-05-22T01:03:03.833Z,14.15
2023-05-22T01:04:03.933Z,13.53
2023-05-22T01:05:03.890Z,13.78
2023-05-22T01:06:03.932Z,14.38
2023-05-22T01:07:03.996Z,13.73
2023-05-22T01:08:04.090Z,12.47
2023-05-22T01:09:04.078Z,12.30
2023-05-22T01:10:04.145Z,11.63
2023-05-22T01:11:04.192Z,11.79
2023-05-22T01:12:04.219Z,11.93
2023-05-22T01:13:04.297Z,11.29
2023-05-22T01:14:04.335Z,10.83
2023-05-22T01:15:04.385Z,10.91
2023-05-22T01:16:04.473Z,11.68
2023-05-22T01:17:04.485Z,11.12
2023-05-22T01:18:04.620Z,10.53
2023-05-22T01:19:04.658Z,10.88
2023-05-22T01:20:04.632Z,12.14
2023-05-22T01:21:04.701Z,11.67
2023-05-22T01:22:04.759Z,11.42
2023-05-22T01:23:04.803Z,11.90
2023-05-22T01:24:04.859Z,13.49
2023-05-22T01:25:04.931Z,12.89
2023-05-22T01:26:04.990Z,12.57
2023-05-22T01:27:05.015Z,13.77
2023-05-22T01:28:05.099Z,13.99
2023-05-22T01:29:05.139Z,13.37
2023-05-22T01:30:05.220Z,13.42
2023-05-22T01:31:05.264Z,13.94
2023-05-22T01:32:05.334Z,12.31
2023-05-22T01:33:05.435Z,12.74
2023-05-22T01:34:05.495Z,12.43
2023-05-22T01:35:05.430Z,12.75
2023-05-22T01:36:05.451Z,11.89
2023-05-22T01:37:05.474Z,12.89
2023-05-22T01:38:05.480Z,13.32
2023-05-22T01:39:05.525Z,13.31
2023-05-22T01:40:05.527Z,13.87
2023-05-22T01:41:05.535Z,14.40
2023-05-22T01:42:05.548Z,14.47
2023-05-22T01:43:05.577Z,14.64
2023-05-22T01:44:05.619Z,14.82
2023-05-22T01:45:05.615Z,14.78
2023-05-22T01:46:05.666Z,14.53
2023-05-22T01:47:05.703Z,14.26
2023-05-22T01:48:05.759Z,15.61
2023-05-22T01:49:05.727Z,15.15
2023-05-22T01:50:05.885Z,15.27
2023-05-22T01:51:05.769Z,14.94
2023-05-22T01:52:05.826Z,15.23
2023-05-22T01:53:05.851Z,15.02
2023-05-22T01:54:05.878Z,16.02
2023-05-22T01:55:05.898Z,13.73
2023-05-22T01:56:05.927Z,13.59
2023-05-22T01:57:05.952Z,14.33
2023-05-22T01:58:05.947Z,13.32
2023-05-22T01:59:05.967Z,13.83
2023-05-22T02:00:05.972Z,14.28
2023-05-22T02:01:06.024Z,12.33
2023-05-22T02:02:06.070Z,12.42
2023-05-22T02:03:06.108Z,11.58
2023-05-22T02:04:06.022Z,11.27
2023-05-22T02:05:06.047Z,11.25
2023-05-22T02:06:06.069Z,10.62
2023-05-22T02:07:06.036Z,11.27
2023-05-22T02:08:06.053Z,10.56
2023-05-22T02:09:06.063Z,10.98
2023-05-22T02:10:06.093Z,11.33
2023-05-22T02:11:06.094Z,10.36
2023-05-22T02:12:06.089Z,11.13
2023-05-22T02:13:06.098Z,10.46
2023-05-22T02:14:06.093Z,11.26
2023-05-22T02:15:06.106Z,10.84
2023-05-22T02:16:06.141Z,10.48
2023-05-22T02:17:06.122Z,10.48
2023-05-22T02:18:06.195Z,11.40
2023-05-22T02:19:06.194Z,11.00
2023-05-22T02:20:06.108Z,12.07
2023-05-22T02:21:06.128Z,11.71
2023-05-22T02:22:06.162Z,12.62
2023-05-22T02:23:06.171Z,13.21
2023-05-22T02:24:06.166Z,14.74
2023-05-22T02:25:06.187Z,14.50
2023-05-22T02:26:06.186Z,14.86
2023-05-22T02:27:06.202Z,14.61
2023-05-22T02:28:06.254Z,15.15
2023-05-22T02:29:06.247Z,16.28
2023-05-22T02:30:06.261Z,15.71
2023-05-22T02:31:06.305Z,17.32
2023-05-22T02:32:06.310Z,16.56
2023-05-22T02:33:06.458Z,16.24
2023-05-22T02:34:06.348Z,16.33
2023-05-22T02:35:06.362Z,15.83
2023-05-22T02:36:06.436Z,16.82
2023-05-22T02:37:06.408Z,16.33
2023-05-22T02:38:06.453Z,16.74
2023-05-22T02:39:06.435Z,15.63
2023-05-22T02:40:06.577Z,15.57
2023-05-22T02:41:06.534Z,15.94
2023-05-22T02:42:06.544Z,14.49
2023-05-22T02:43:06.582Z,15.99
2023-05-22T02:44:06.614Z,16.51
2023-05-22T02:45:06.640Z,16.12
2023-05-22T02:46:06.725Z,14.24
2023-05-22T02:47:06.773Z,14.90
2023-05-22T02:48:06.874Z,15.96
2023-05-22T02:49:06.851Z,16.08
2023-05-22T02:50:06.883Z,15.00
2023-05-22T02:51:06.908Z,15.84
2023-05-22T02:52:06.938Z,15.39
2023-05-22T02:53:06.981Z,15.15
2023-05-22T02:54:07.044Z,14.33
2023-05-22T02:55:07.037Z,14.32
2023-05-22T02:56:07.049Z,13.93
2023-05-22T02:57:07.071Z,13.26
2023-05-22T02:58:07.092Z,12.27
2023-05-22T02:59:07.079Z,12.48
2023-05-22T03:00:07.094Z,12.75
2023-05-22T03:01:07.111Z,12.03
2023-05-22T03:02:07.152Z,11.42
2023-05-22T03:03:07.176Z,11.44
2023-05-22T03:04:07.217Z,10.94
2023-05-22T03:05:07.108Z,11.70
2023-05-22T03:06:07.098Z,11.64
2023-05-22T03:07:07.096Z,10.53
2023-05-22T03:08:07.085Z,11.44
2023-05-22T03:09:07.091Z,12.84
2023-05-22T03:10:07.146Z,11.67
2023-05-22T03:11:07.113Z,12.50
2023-05-22T03:12:07.137Z,12.95
2023-05-22T03:13:07.187Z,12.56
2023-05-22T03:14:07.218Z,12.75
2023-05-22T03:15:07.267Z,13.36
2023-05-22T03:16:07.328Z,13.51
2023-05-22T03:17:07.365Z,14.77
2023-05-22T03:18:07.429Z,14.45
2023-05-22T03:19:07.502Z,13.37
2023-05-22T03:20:07.548Z,12.57
2023-05-22T03:21:07.541Z,13.82
2023-05-22T03:22:07.587Z,13.85
2023-05-22T03:23:07.630Z,13.73
2023-05-22T03:24:07.695Z,13.85
2023-05-22T03:25:07.712Z,13.20
2023-05-22T03:26:07.806Z,14.01
2023-05-22T03:27:07.841Z,13.34
2023-05-22T03:28:07.871Z,13.05
2023-05-22T03:29:07.964Z,12.67
2023-05-22T03:30:08.002Z,14.05
2023-05-22T03:31:08.028Z,13.14
2023-05-22T03:32:08.104Z,13.14
2023-05-22T03:33:08.226Z,13.79
2023-05-22T03:34:08.325Z,13.69
2023-05-22T03:35:08.300Z,15.83
2023-05-22T03:36:08.352Z,15.48
2023-05-22T03:37:08.396Z,16.02
2023-05-22T03:38:08.468Z,15.68
2023-05-22T03:39:08.529Z,16.33
2023-05-22T03:40:08.596Z,16.48
2023-05-22T03:41:08.671Z,16.49
2023-05-22T03:42:08.690Z,16.48
2023-05-22T03:43:08.712Z,16.20
2023-05-22T03:44:08.766Z,15.06
2023-05-22T03:45:08.813Z,15.02
2023-05-22T03:46:08.950Z,14.98
2023-05-22T03:47:08.861Z,14.85
2023-05-22T03:48:08.935Z,13.79
2023-05-22T03:49:08.888Z,14.44
2023-05-22T03:50:08.897Z,12.93
2023-05-22T03:51:08.917Z,11.37
2023-05-22T03:52:08.921Z,11.17
2023-05-22T03:53:08.963Z,11.67
2023-05-22T03:54:08.974Z,11.79
2023-05-22T03:55:08.972Z,11.72
2023-05-22T03:56:08.990Z,12.19
2023-05-22T03:57:08.995Z,11.59
2023-05-22T03:58:09.027Z,12.27
2023-05-22T03:59:09.035Z,11.55
2023-05-22T04:00:09.077Z,11.16
2023-05-22T04:01:09.104Z,11.69
2023-05-22T04:02:09.126Z,11.96
2023-05-22T04:03:09.224Z,11.17
2023-05-22T04:04:09.237Z,10.67
2023-05-22T04:05:09.259Z,11.90
2023-05-22T04:06:09.283Z,11.61
2023-05-22T04:07:09.332Z,11.69
2023-05-22T04:08:09.413Z,11.60
2023-05-22T04:09:09.461Z,11.30
2023-05-22T04:10:09.526Z,11.51
2023-05-22T04:11:09.605Z,11.11
2023-05-22T04:12:09.662Z,11.46
2023-05-22T04:13:09.731Z,11.79
2023-05-22T04:14:09.827Z,11.21
2023-05-22T04:15:09.849Z,11.18
2023-05-22T04:16:09.930Z,11.99
2023-05-22T04:17:09.917Z,11.08
2023-05-22T04:18:10.019Z,11.20
2023-05-22T04:19:10.046Z,11.90
2023-05-22T04:20:10.034Z,12.48
2023-05-22T04:21:10.080Z,12.17
2023-05-22T04:22:10.152Z,10.80
2023-05-22T04:23:10.068Z,11.77
2023-05-22T04:24:10.040Z,12.50
2023-05-22T04:25:10.019Z,11.30
2023-05-22T04:26:10.040Z,11.59
2023-05-22T04:27:10.080Z,11.81
2023-05-22T04:28:10.013Z,10.19
2023-05-22T04:29:09.978Z,10.42
2023-05-22T04:30:09.956Z,11.32
2023-05-22T04:31:09.995Z,12.18
2023-05-22T04:32:09.915Z,11.40
2023-05-22T04:33:09.950Z,11.54
2023-05-22T04:34:09.890Z,10.97
2023-05-22T04:35:09.867Z,11.27
2023-05-22T04:36:12.356Z,10.46
2023-05-22T04:37:09.795Z,11.92
2023-05-22T04:38:09.735Z,10.65
2023-05-22T04:39:09.674Z,11.05
2023-05-22T04:40:09.626Z,11.87
2023-05-22T04:41:09.603Z,12.13
2023-05-22T04:42:09.530Z,12.89
2023-05-22T04:43:09.487Z,12.27
2023-05-22T04:44:09.424Z,11.74
2023-05-22T04:45:09.354Z,12.20
2023-05-22T04:46:09.408Z,12.26
2023-05-22T04:47:09.340Z,12.55
2023-05-22T04:48:09.561Z,12.43
2023-05-22T04:49:09.111Z,12.02
2023-05-22T04:50:09.062Z,12.66
2023-05-22T04:51:09.034Z,12.32
2023-05-22T04:52:08.989Z,12.47
2023-05-22T04:53:08.932Z,13.12
2023-05-22T04:54:08.842Z,12.52
2023-05-22T04:55:08.799Z,12.58
2023-05-22T04:56:08.775Z,13.95
2023-05-22T04:57:08.683Z,13.07
2023-05-22T04:58:08.642Z,13.40
2023-05-22T04:59:08.569Z,14.78
2023-05-22T05:00:08.519Z,13.13
2023-05-22T05:01:08.460Z,12.70
2023-05-22T05:02:08.497Z,13.23
2023-05-22T05:03:08.577Z,12.22
2023-05-22T05:04:08.356Z,11.75
2023-05-22T05:05:08.219Z,11.09
2023-05-22T05:06:08.116Z,12.19
2023-05-22T05:07:08.042Z,11.16
2023-05-22T05:08:07.971Z,11.57
2023-05-22T05:09:07.902Z,11.87
2023-05-22T05:10:07.850Z,11.58
2023-05-22T05:11:07.752Z,12.32
2023-05-22T05:12:07.738Z,10.51
2023-05-22T05:13:07.592Z,11.95
2023-05-22T05:14:07.604Z,11.85
2023-05-22T05:15:07.440Z,11.09
2023-05-22T05:16:07.386Z,12.44
2023-05-22T05:17:07.286Z,12.50
2023-05-22T05:18:07.441Z,12.36
2023-05-22T05:19:07.202Z,11.78
2023-05-22T05:20:07.078Z,12.57
2023-05-22T05:21:07.013Z,12.60
2023-05-22T05:22:06.921Z,12.10
2023-05-22T05:23:07.085Z,12.19
2023-05-22T05:24:06.862Z,12.44
2023-05-22T05:25:06.792Z,12.32
2023-05-22T05:26:06.732Z,12.92
2023-05-22T05:27:06.720Z,12.27
2023-05-22T05:28:06.679Z,12.86
2023-05-22T05:29:06.663Z,12.08
2023-05-22T05:30:06.666Z,11.50
2023-05-22T05:31:07.168Z,13.01
2023-05-22T05:32:06.680Z,11.66
2023-05-22T05:33:07.162Z,11.50
2023-05-22T05:34:06.601Z,12.38
2023-05-22T05:35:06.532Z,11.96
2023-05-22T05:36:06.524Z,12.50
2023-05-22T05:37:06.496Z,13.68
2023-05-22T05:38:06.456Z,12.23
2023-05-22T05:39:06.472Z,12.24
2023-05-22T05:40:06.433Z,12.53
2023-05-22T05:41:06.407Z,12.84
2023-05-22T05:42:06.420Z,11.90
2023-05-22T05:43:08.052Z,12.75
2023-05-22T05:44:06.297Z,12.02
2023-05-22T05:45:06.583Z,12.42
2023-05-22T05:46:06.205Z,11.68
2023-05-22T05:47:06.086Z,12.42
2023-05-22T05:48:13.526Z,12.69
2023-05-22T05:49:05.970Z,11.93
2023-05-22T05:50:06.211Z,12.01
2023-05-22T05:51:05.807Z,12.69
2023-05-22T05:52:05.747Z,12.25
2023-05-22T05:53:06.111Z,12.31
2023-05-22T05:54:05.622Z,12.74
2023-05-22T05:55:05.552Z,12.81
2023-05-22T05:56:05.625Z,13.33
2023-05-22T05:57:05.449Z,12.56
2023-05-22T05:58:05.417Z,11.69
2023-05-22T05:59:05.349Z,13.06
2023-05-22T06:00:20.856Z,12.79
2023-05-22T06:01:07.329Z,12.23
2023-05-22T06:02:20.855Z,13.09
2023-05-22T06:03:06.105Z,14.47
2023-05-22T06:04:20.595Z,13.24
2023-05-22T06:06:20.605Z,13.19
2023-05-22T06:07:04.812Z,14.57
2023-05-22T06:09:08.121Z,13.63
2023-05-22T06:10:12.852Z,14.87
2023-05-22T06:11:20.393Z,14.48
2023-05-22T06:12:07.673Z,13.38
2023-05-22T06:13:04.400Z,13.49
2023-05-22T06:14:04.424Z,13.73
2023-05-22T06:15:11.998Z,13.13
2023-05-22T06:16:19.893Z,12.42
2023-05-22T06:17:04.629Z,13.24
2023-05-22T06:18:04.226Z,13.02
2023-05-22T06:19:05.157Z,13.14
2023-05-22T06:20:04.062Z,11.86
2023-05-22T06:21:05.979Z,12.56
2023-05-22T06:22:04.208Z,13.35
2023-05-22T06:23:03.683Z,14.16
2023-05-22T06:24:03.626Z,13.61
2023-05-22T06:25:03.552Z,14.08
2023-05-22T06:26:03.478Z,13.66
2023-05-22T06:27:03.624Z,14.32
2023-05-22T06:28:03.346Z,14.00
2023-05-22T06:29:03.276Z,13.37
2023-05-22T06:30:04.590Z,12.56
2023-05-22T06:31:03.367Z,13.71
2023-05-22T06:32:03.666Z,13.74
2023-05-22T06:33:03.388Z,13.62
2023-05-22T06:34:03.369Z,11.92
2023-05-22T06:35:03.456Z,12.30
2023-05-22T06:36:03.304Z,12.31
2023-05-22T06:37:03.775Z,13.07
2023-05-22T06:38:03.460Z,12.07
2023-05-22T06:39:03.261Z,11.90
2023-05-22T06:40:10.620Z,12.41
2023-05-22T06:41:03.136Z,12.23
2023-05-22T06:42:03.552Z,11.40
2023-05-22T06:43:03.007Z,11.12
2023-05-22T06:44:06.115Z,11.49
2023-05-22T06:45:02.862Z,11.15
2023-05-22T06:46:02.815Z,11.34
2023-05-22T06:47:02.708Z,11.20
2023-05-22T06:48:06.387Z,12.06
2023-05-22T06:49:03.581Z,10.86
2023-05-22T06:50:02.935Z,11.51
2023-05-22T06:51:02.425Z,10.41
2023-05-22T06:52:05.216Z,11.67
2023-05-22T06:53:05.471Z,11.61
2023-05-22T06:54:02.267Z,11.71
2023-05-22T06:55:04.289Z,11.57
2023-05-22T06:56:04.107Z,10.97
2023-05-22T06:57:02.205Z,10.31
2023-05-22T06:58:02.768Z,11.52
2023-05-22T06:59:00.934Z,11.13
2023-05-22T07:00:02.355Z,11.39
2023-05-22T07:01:01.983Z,10.82
2023-05-22T07:02:01.577Z,11.48
2023-05-22T07:03:01.728Z,11.82
2023-05-22T07:04:01.445Z,10.73
2023-05-22T07:05:02.661Z,10.58
2023-05-22T07:06:01.257Z,11.22
2023-05-22T07:07:01.183Z,10.45
2023-05-22T07:08:01.149Z,10.63
2023-05-22T07:09:01.188Z,10.09
2023-05-22T07:10:01.430Z,9.83
2023-05-22T07:11:02.332Z,10.23
2023-05-22T07:12:00.783Z,12.36
2023-05-22T07:13:01.170Z,12.85
2023-05-22T07:14:00.587Z,10.89
2023-05-22T07:15:00.522Z,11.25
2023-05-22T07:16:00.515Z,11.35
2023-05-22T07:17:01.572Z,10.03
2023-05-22T07:18:00.427Z,11.26
2023-05-22T07:19:00.301Z,10.79
2023-05-22T07:20:00.227Z,11.44
2023-05-22T07:21:00.168Z,11.11
2023-05-22T07:22:00.183Z,9.64
2023-05-22T07:23:00.161Z,10.01
2023-05-22T07:23:59.971Z,10.13
2023-05-22T07:24:59.935Z,10.54
2023-05-22T07:26:03.342Z,9.82
2023-05-22T07:26:59.834Z,9.90
2023-05-22T07:28:01.123Z,9.92
2023-05-22T07:28:59.641Z,9.75
2023-05-22T07:29:59.548Z,11.43
2023-05-22T07:31:00.455Z,12.45
2023-05-22T07:31:59.469Z,11.21
2023-05-22T07:32:59.699Z,11.57
2023-05-22T07:34:00.129Z,11.80
2023-05-22T07:34:59.329Z,13.29
2023-05-22T07:35:59.284Z,13.22
2023-05-22T07:37:02.455Z,12.72
2023-05-22T07:37:59.372Z,12.59
2023-05-22T07:39:02.289Z,12.36
2023-05-22T07:39:59.895Z,12.51
2023-05-22T07:40:58.793Z,10.79
2023-05-22T07:42:30.743Z,10.76
2023-05-22T07:42:59.366Z,10.97
2023-05-22T07:44:06.042Z,11.18
2023-05-22T07:45:00.491Z,10.67
2023-05-22T07:45:59.829Z,10.57
2023-05-22T07:47:05.771Z,11.53
2023-05-22T07:47:58.669Z,10.94
2023-05-22T07:49:01.332Z,10.76
2023-05-22T07:49:58.505Z,10.53
2023-05-22T07:50:57.930Z,10.74
2023-05-22T07:52:05.188Z,9.56
2023-05-22T07:53:00.873Z,11.33
2023-05-22T07:54:04.958Z,10.29
2023-05-22T07:54:57.648Z,9.49
2023-05-22T07:56:00.497Z,10.49
2023-05-22T07:56:57.193Z,9.85
2023-05-22T07:57:57.389Z,9.81
2023-05-22T07:58:57.157Z,10.09
2023-05-22T07:59:56.875Z,10.47
2023-05-22T08:00:56.693Z,9.59
2023-05-22T08:01:58.160Z,10.12
2023-05-22T08:02:56.766Z,9.44
2023-05-22T08:03:56.922Z,9.14
2023-05-22T08:04:56.697Z,10.29
2023-05-22T08:05:56.058Z,8.67
2023-05-22T08:06:55.943Z,10.13
2023-05-22T08:07:55.804Z,9.20
2023-05-22T08:08:56.146Z,9.28
2023-05-22T08:09:55.540Z,9.53
2023-05-22T08:11:04.159Z,9.88
2023-05-22T08:11:55.279Z,9.46
2023-05-22T08:12:55.154Z,9.29
2023-05-22T08:13:55.164Z,9.02
2023-05-22T08:14:55.067Z,9.92
2023-05-22T08:16:00.288Z,9.47
2023-05-22T08:16:54.686Z,9.68
2023-05-22T08:17:54.493Z,8.95
2023-05-22T08:18:54.698Z,8.13
2023-05-22T08:19:54.233Z,9.59
2023-05-22T08:20:54.963Z,8.95
2023-05-22T08:21:53.924Z,10.11
2023-05-22T08:22:54.692Z,10.79
2023-05-22T08:23:53.639Z,9.96
2023-05-22T08:24:53.426Z,11.58
2023-05-22T08:25:53.331Z,9.83
2023-05-22T08:26:53.146Z,9.83
2023-05-22T08:27:52.996Z,9.51
2023-05-22T08:28:53.145Z,8.82
2023-05-22T08:29:52.855Z,9.33
2023-05-22T08:30:52.528Z,8.31
2023-05-22T08:31:52.487Z,8.58
2023-05-22T08:32:52.668Z,9.75
2023-05-22T08:33:52.184Z,8.02
2023-05-22T08:34:51.882Z,9.09
2023-05-22T08:35:51.705Z,9.27
2023-05-22T08:36:51.583Z,8.54
2023-05-22T08:37:51.413Z,8.68
2023-05-22T08:38:51.675Z,9.46
2023-05-22T08:39:58.583Z,8.80
2023-05-22T08:40:51.212Z,9.61
2023-05-22T08:41:49.837Z,9.41
2023-05-22T08:42:51.660Z,9.42
2023-05-22T08:43:50.659Z,10.79
2023-05-22T08:44:50.316Z,9.45
2023-05-22T08:45:50.310Z,9.52
2023-05-22T08:46:49.983Z,9.53
2023-05-22T08:47:50.151Z,9.34
2023-05-22T08:48:49.633Z,10.09
2023-05-22T08:49:49.453Z,9.30
2023-05-22T08:50:49.325Z,8.95
2023-05-22T08:51:49.168Z,9.28
2023-05-22T08:52:49.169Z,9.02
2023-05-22T08:53:48.890Z,10.52
2023-05-22T08:54:48.717Z,8.56
2023-05-22T08:55:48.560Z,9.09
2023-05-22T08:56:56.283Z,9.71
2023-05-22T08:57:48.654Z,9.43
2023-05-22T08:58:48.038Z,9.53
2023-05-22T08:59:47.862Z,9.23
2023-05-22T09:00:47.719Z,10.03
2023-05-22T09:01:47.582Z,10.66
2023-05-22T09:02:47.701Z,9.54
2023-05-22T09:03:47.678Z,8.90
2023-05-22T09:04:46.972Z,9.06
2023-05-22T09:05:46.770Z,8.99
2023-05-22T09:06:46.660Z,8.75
2023-05-22T09:07:46.661Z,8.47
2023-05-22T09:08:46.224Z,8.77
2023-05-22T09:09:46.174Z,8.52
2023-05-22T09:10:45.854Z,8.05
2023-05-22T09:11:46.162Z,8.74
2023-05-22T09:12:45.484Z,12.17
2023-05-22T09:13:45.302Z,10.43
2023-05-22T09:14:45.112Z,9.01
2023-05-22T09:15:44.923Z,9.36
2023-05-22T09:16:44.768Z,8.94
2023-05-22T09:17:44.623Z,7.91
2023-05-22T09:18:44.413Z,9.02
2023-05-22T09:19:44.121Z,8.13
2023-05-22T09:20:44.162Z,8.74
2023-05-22T09:21:44.250Z,8.91
2023-05-22T09:22:43.553Z,8.48
2023-05-22T09:23:43.344Z,8.47
2023-05-22T09:24:43.241Z,7.63
2023-05-22T09:25:43.109Z,8.13
2023-05-22T09:26:43.313Z,8.26
2023-05-22T09:27:43.658Z,7.79
2023-05-22T09:28:42.667Z,8.17
2023-05-22T09:29:42.223Z,8.26
2023-05-22T09:30:42.439Z,8.13
2023-05-22T09:31:45.332Z,7.95
2023-05-22T09:32:41.768Z,8.00
2023-05-22T09:33:41.691Z,8.02
2023-05-22T09:35:13.038Z,9.03
2023-05-22T09:35:44.379Z,7.76
2023-05-22T09:36:40.852Z,7.81
2023-05-22T09:37:40.619Z,8.14
2023-05-22T09:38:40.451Z,8.85
2023-05-22T09:39:40.247Z,9.49
2023-05-22T09:40:40.441Z,9.02
2023-05-22T09:41:43.009Z,9.98
2023-05-22T09:42:39.619Z,9.00
2023-05-22T09:43:39.685Z,7.66
2023-05-22T09:44:39.220Z,8.41
2023-05-22T09:45:42.226Z,8.20
2023-05-22T09:46:39.303Z,8.61
2023-05-22T09:47:38.710Z,7.95
2023-05-22T09:48:38.453Z,8.31
2023-05-22T09:49:38.292Z,7.96
2023-05-22T09:50:38.236Z,8.55
2023-05-22T09:51:37.887Z,8.87
2023-05-22T09:52:37.652Z,9.44
2023-05-22T09:53:37.682Z,7.59
2023-05-22T09:54:37.269Z,7.63
2023-05-22T09:55:37.060Z,7.59
2023-05-22T09:56:39.874Z,7.16
2023-05-22T09:57:36.935Z,8.20
2023-05-22T09:58:36.491Z,7.47
2023-05-22T09:59:36.316Z,7.92
2023-05-22T10:00:36.073Z,7.57
2023-05-22T10:01:35.972Z,8.16
2023-05-22T10:02:35.756Z,7.30
2023-05-22T10:03:35.686Z,7.06
2023-05-22T10:04:35.353Z,7.19
2023-05-22T10:05:35.193Z,7.44
2023-05-22T10:06:34.929Z,7.29
2023-05-22T10:07:34.734Z,7.78
2023-05-22T10:08:34.701Z,7.21
2023-05-22T10:09:34.776Z,7.67
2023-05-22T10:10:34.194Z,7.02
2023-05-22T10:11:34.019Z,6.72
2023-05-22T10:12:33.790Z,7.45
2023-05-22T10:13:33.686Z,7.12
2023-05-22T10:14:33.784Z,7.36
2023-05-22T10:15:33.249Z,7.35
2023-05-22T10:16:33.103Z,7.63
2023-05-22T10:17:32.883Z,7.43
2023-05-22T10:18:33.694Z,6.78
2023-05-22T10:19:32.509Z,7.48
2023-05-22T10:20:32.287Z,7.35
2023-05-22T10:21:32.258Z,7.99
2023-05-22T10:22:32.005Z,8.05
2023-05-22T10:23:32.195Z,7.37
2023-05-22T10:24:31.779Z,8.79
2023-05-22T10:25:31.705Z,8.00
2023-05-22T10:26:31.286Z,8.41
2023-05-22T10:27:31.089Z,8.46
2023-05-22T10:28:31.212Z,9.02
2023-05-22T10:29:30.759Z,7.57
2023-05-22T10:30:30.580Z,9.45
2023-05-22T10:31:30.383Z,8.31
2023-05-22T10:32:30.728Z,8.58
2023-05-22T10:33:30.059Z,8.88
2023-05-22T10:34:29.830Z,8.44
2023-05-22T10:35:29.624Z,7.68
2023-05-22T10:36:29.431Z,7.60
2023-05-22T10:37:29.403Z,8.73
2023-05-22T10:38:29.202Z,8.60
2023-05-22T10:39:28.937Z,8.01
2023-05-22T10:40:29.334Z,7.05
2023-05-22T10:41:28.560Z,6.20
2023-05-22T10:42:28.346Z,7.42
2023-05-22T10:43:28.177Z,7.62
2023-05-22T10:44:28.025Z,6.75
2023-05-22T10:45:27.907Z,7.99
2023-05-22T10:46:27.749Z,7.87
2023-05-22T10:47:27.531Z,9.55
2023-05-22T10:48:27.721Z,9.36
2023-05-22T10:49:27.214Z,8.21
2023-05-22T10:50:27.020Z,8.74
2023-05-22T10:51:26.829Z,7.57
2023-05-22T10:52:26.663Z,9.18
2023-05-22T10:53:26.846Z,7.68
2023-05-22T10:54:26.376Z,7.54
2023-05-22T10:55:26.233Z,6.73
2023-05-22T10:56:26.099Z,9.23
2023-05-22T10:57:25.989Z,7.21
2023-05-22T10:58:26.210Z,7.83
2023-05-22T10:59:26.644Z,7.97
2023-05-22T11:00:25.474Z,6.94
2023-05-22T11:01:25.275Z,6.28
2023-05-22T11:02:40.794Z,7.38
2023-05-22T11:03:25.273Z,6.84
2023-05-22T11:04:25.263Z,7.39
2023-05-22T11:05:24.561Z,7.25
2023-05-22T11:06:25.361Z,6.56
2023-05-22T11:07:24.199Z,7.13
2023-05-22T11:08:24.218Z,6.94
2023-05-22T11:10:23.776Z,7.55
2023-05-22T11:11:23.518Z,6.15
2023-05-22T11:12:23.320Z,6.83
2023-05-22T11:13:23.237Z,7.50
2023-05-22T11:14:23.223Z,7.87
2023-05-22T11:15:22.788Z,7.06
2023-05-22T11:16:22.721Z,7.45
2023-05-22T11:17:22.447Z,7.98
2023-05-22T11:18:22.304Z,8.56
2023-05-22T11:19:24.048Z,8.17
2023-05-22T11:20:21.939Z,7.55
2023-05-22T11:21:21.791Z,6.66
2023-05-22T11:22:21.595Z,7.51
2023-05-22T11:23:21.741Z,6.73
2023-05-22T11:24:21.756Z,7.26
2023-05-22T11:25:21.076Z,7.29
2023-05-22T11:26:21.041Z,7.91
2023-05-22T11:27:20.703Z,7.96
2023-05-22T11:28:21.507Z,7.53
2023-05-22T11:29:21.050Z,7.18
2023-05-22T11:30:20.166Z,7.67
2023-05-22T11:31:20.051Z,7.18
2023-05-22T11:32:19.806Z,6.52
2023-05-22T11:33:19.751Z,6.59
2023-05-22T11:34:19.504Z,7.00
2023-05-22T11:35:19.274Z,6.83
2023-05-22T11:36:19.075Z,6.80
2023-05-22T11:37:18.915Z,6.72
2023-05-22T11:38:18.742Z,5.74
2023-05-22T11:39:18.532Z,5.96
2023-05-22T11:40:18.351Z,7.10
2023-05-22T11:41:18.165Z,6.51
2023-05-22T11:42:18.102Z,6.39
2023-05-22T11:43:17.802Z,6.72
2023-05-22T11:44:17.636Z,7.24
2023-05-22T11:45:17.411Z,6.43
2023-05-22T11:46:17.274Z,6.65
2023-05-22T11:47:17.053Z,6.49
2023-05-22T11:48:16.955Z,6.82
2023-05-22T11:49:16.759Z,6.54
2023-05-22T11:50:22.498Z,7.18
2023-05-22T11:51:16.418Z,6.47
2023-05-22T11:52:16.157Z,5.91
2023-05-22T11:53:16.029Z,6.12
2023-05-22T11:54:15.842Z,6.87
2023-05-22T11:55:15.707Z,6.66
2023-05-22T11:56:15.587Z,5.62
2023-05-22T11:57:15.366Z,6.36
2023-05-22T11:58:15.364Z,6.04
2023-05-22T11:59:15.029Z,5.89
2023-05-22T12:00:14.941Z,6.40
2023-05-22T12:01:14.722Z,6.69
2023-05-22T12:02:14.744Z,6.78
2023-05-22T12:03:14.420Z,6.79
2023-05-22T12:04:14.262Z,6.76
2023-05-22T12:05:14.008Z,6.69
2023-05-22T12:06:16.429Z,6.98
2023-05-22T12:07:13.744Z,6.80
2023-05-22T12:08:13.764Z,6.76
2023-05-22T12:09:13.401Z,7.31
2023-05-22T12:10:13.940Z,7.00
2023-05-22T12:11:28.704Z,7.84
2023-05-22T12:12:13.272Z,7.77
2023-05-22T12:13:15.997Z,7.25
2023-05-22T12:14:12.800Z,8.27
2023-05-22T12:15:12.502Z,6.20
2023-05-22T12:16:12.493Z,6.69
2023-05-22T12:17:12.229Z,10.49
2023-05-22T12:18:12.107Z,8.39
2023-05-22T12:19:12.318Z,8.76
2023-05-22T12:20:11.772Z,6.31
2023-05-22T12:21:11.610Z,7.54
2023-05-22T12:22:11.560Z,6.30
2023-05-22T12:23:11.309Z,6.80
2023-05-22T12:24:11.250Z,5.94
2023-05-22T12:25:11.083Z,5.95
2023-05-22T12:26:10.899Z,5.32
2023-05-22T12:27:10.915Z,5.28
2023-05-22T12:28:10.628Z,5.95
2023-05-22T12:29:10.740Z,5.98
2023-05-22T12:30:10.556Z,5.99
2023-05-22T12:31:10.285Z,6.13
2023-05-22T12:32:10.085Z,5.16
2023-05-22T12:33:10.283Z,5.81
2023-05-22T12:34:09.814Z,5.90
2023-05-22T12:35:09.664Z,6.36
2023-05-22T12:36:09.524Z,6.28
2023-05-22T12:37:09.396Z,5.97
2023-05-22T12:38:09.751Z,6.23
2023-05-22T12:39:09.165Z,6.15
2023-05-22T12:40:08.968Z,6.36
2023-05-22T12:41:08.875Z,6.15
2023-05-22T12:42:08.818Z,5.63
2023-05-22T12:43:08.570Z,5.60
2023-05-22T12:48:05.354Z,7.68
2023-05-22T12:49:06.282Z,6.55
2023-05-22T12:50:06.204Z,7.84
2023-05-22T12:51:06.212Z,7.73
2023-05-22T12:52:06.212Z,7.44
2023-05-22T12:53:06.404Z,7.15
2023-05-22T12:54:06.233Z,7.58
2023-05-22T12:55:06.225Z,7.29
2023-05-22T12:56:06.193Z,7.10
2023-05-22T12:57:06.151Z,7.42
2023-05-22T12:58:06.635Z,7.40
2023-05-22T12:59:06.146Z,6.86
2023-05-22T13:00:06.137Z,7.45
2023-05-22T13:01:06.213Z,7.11
2023-05-22T13:02:06.512Z,7.38
2023-05-22T13:03:06.471Z,7.48
2023-05-22T13:04:06.385Z,6.80
2023-05-22T13:05:06.677Z,7.47
2023-05-22T13:06:06.404Z,7.29
2023-05-22T13:07:06.907Z,6.89
2023-05-22T13:08:06.465Z,7.29